createdAt,value
2018-07-08T00:00:06.907Z,16.84
2018-07-08T00:02:34.945Z,16.79
2018-07-08T00:05:02.979Z,16.77
2018-07-08T00:07:31.011Z,16.74
2018-07-08T00:09:59.052Z,16.72
2018-07-08T00:12:27.067Z,16.70
2018-07-08T00:14:55.152Z,16.69
2018-07-08T00:17:23.179Z,16.69
2018-07-08T00:19:51.217Z,16.69
2018-07-08T00:22:19.239Z,16.67
2018-07-08T00:24:47.287Z,16.65
2018-07-08T00:27:15.307Z,16.62
2018-07-08T00:29:43.340Z,16.60
2018-07-08T00:32:11.372Z,16.59
2018-07-08T00:34:39.403Z,16.59
2018-07-08T00:37:07.433Z,16.59
2018-07-08T00:39:35.472Z,16.58
2018-07-08T00:42:03.484Z,16.56
2018-07-08T00:44:31.527Z,16.55
2018-07-08T00:46:59.560Z,16.50
2018-07-08T00:49:27.607Z,16.47
2018-07-08T00:51:55.660Z,16.45
2018-07-08T00:54:23.696Z,16.44
2018-07-08T00:56:51.732Z,16.43
2018-07-08T00:59:19.780Z,16.43
2018-07-08T01:01:47.872Z,16.41
2018-07-08T01:04:15.841Z,16.37
2018-07-08T01:06:43.864Z,16.36
2018-07-08T01:09:11.908Z,16.37
2018-07-08T01:11:39.929Z,16.29
2018-07-08T01:14:07.988Z,16.27
2018-07-08T01:16:36.048Z,16.27
2018-07-08T01:19:04.148Z,16.31
2018-07-08T01:21:32.185Z,16.30
2018-07-08T01:24:00.234Z,16.25
2018-07-08T01:26:28.268Z,16.20
2018-07-08T01:28:56.305Z,16.20
2018-07-08T01:31:24.337Z,16.19
2018-07-08T01:33:52.378Z,16.16
2018-07-08T01:36:20.400Z,16.12
2018-07-08T01:38:48.430Z,16.09
2018-07-08T01:41:16.484Z,16.08
2018-07-08T01:43:44.509Z,16.09
2018-07-08T01:46:12.549Z,16.08
2018-07-08T01:48:40.580Z,16.04
2018-07-08T01:51:08.612Z,16.03
2018-07-08T01:53:36.640Z,16.04
2018-07-08T01:56:05.326Z,16.02
2018-07-08T01:58:33.347Z,16.00
2018-07-08T02:01:01.434Z,15.98
2018-07-08T02:03:29.462Z,15.96
2018-07-08T02:05:57.492Z,15.94
2018-07-08T02:08:25.498Z,15.93
2018-07-08T02:10:53.536Z,15.90
2018-07-08T02:13:21.571Z,15.83
2018-07-08T02:15:49.607Z,15.83
2018-07-08T02:18:17.647Z,15.83
2018-07-08T02:20:45.684Z,15.84
2018-07-08T02:23:13.720Z,15.85
2018-07-08T02:25:41.747Z,15.86
2018-07-08T02:28:09.772Z,15.85
2018-07-08T02:30:37.815Z,15.84
2018-07-08T02:33:05.850Z,15.84
2018-07-08T02:35:34.701Z,15.83
2018-07-08T02:38:02.726Z,15.82
2018-07-08T02:40:30.761Z,15.82
2018-07-08T02:42:58.785Z,15.83
2018-07-08T02:45:26.864Z,15.80
2018-07-08T02:47:54.879Z,15.79
2018-07-08T02:50:23.231Z,15.78
2018-07-08T02:52:51.260Z,15.77
2018-07-08T02:55:19.315Z,15.76
2018-07-08T02:57:47.354Z,15.75
2018-07-08T03:00:15.404Z,15.74
2018-07-08T03:02:43.437Z,15.73
2018-07-08T03:05:11.512Z,15.72
2018-07-08T03:07:39.547Z,15.70
2018-07-08T03:10:07.589Z,15.67
2018-07-08T03:12:35.633Z,15.66
2018-07-08T03:15:03.728Z,15.65
2018-07-08T03:17:31.773Z,15.64
2018-07-08T03:19:59.828Z,15.63
2018-07-08T03:22:27.872Z,15.63
2018-07-08T03:24:55.905Z,15.61
2018-07-08T03:27:23.932Z,15.55
2018-07-08T03:29:52.176Z,15.53
2018-07-08T03:32:20.215Z,15.49
2018-07-08T03:34:48.244Z,15.42
2018-07-08T03:37:16.280Z,15.37
2018-07-08T03:39:44.327Z,15.37
2018-07-08T03:42:12.368Z,15.39
2018-07-08T03:44:40.388Z,15.39
2018-07-08T03:47:08.416Z,15.43
2018-07-08T03:49:36.757Z,15.44
2018-07-08T03:52:04.795Z,15.41
2018-07-08T03:54:33.152Z,15.40
2018-07-08T03:57:01.179Z,15.39
2018-07-08T03:59:29.205Z,15.36
2018-07-08T04:01:57.236Z,15.38
2018-07-08T04:04:25.256Z,15.41
2018-07-08T04:06:53.289Z,15.41
2018-07-08T04:09:21.320Z,15.36
2018-07-08T04:11:49.644Z,15.35
2018-07-08T04:14:17.684Z,15.36
2018-07-08T04:16:46.302Z,15.39
2018-07-08T04:19:14.408Z,15.42
2018-07-08T04:21:42.443Z,15.45
2018-07-08T04:24:10.528Z,15.46
2018-07-08T04:26:38.564Z,15.50
2018-07-08T04:29:06.600Z,15.50
2018-07-08T04:31:34.662Z,15.53
2018-07-08T04:34:02.711Z,15.56
2018-07-08T04:36:30.736Z,15.56
2018-07-08T04:38:58.795Z,15.54
2018-07-08T04:41:26.860Z,15.55
2018-07-08T04:43:54.883Z,15.59
2018-07-08T04:46:22.932Z,15.61
2018-07-08T04:48:50.965Z,15.68
2018-07-08T04:51:18.991Z,15.69
2018-07-08T04:53:47.025Z,15.69
2018-07-08T04:56:15.061Z,15.68
2018-07-08T04:58:43.112Z,15.72
2018-07-08T05:01:11.136Z,15.77
2018-07-08T05:03:39.161Z,15.78
2018-07-08T05:06:07.199Z,15.85
2018-07-08T05:08:35.260Z,15.87
2018-07-08T05:11:03.287Z,15.92
2018-07-08T05:13:31.340Z,15.93
2018-07-08T05:15:59.360Z,15.98
2018-07-08T05:18:27.407Z,15.98
2018-07-08T05:20:55.432Z,16.01
2018-07-08T05:23:23.503Z,16.08
2018-07-08T05:25:51.531Z,16.14
2018-07-08T05:28:19.560Z,16.23
2018-07-08T05:30:47.613Z,16.33
2018-07-08T05:33:15.660Z,16.36
2018-07-08T05:35:43.715Z,16.41
2018-07-08T05:38:11.716Z,16.43
2018-07-08T05:40:39.756Z,16.46
2018-07-08T05:43:07.792Z,16.55
2018-07-08T05:45:35.815Z,16.60
2018-07-08T05:48:03.852Z,16.70
2018-07-08T05:50:31.943Z,16.74
2018-07-08T05:52:59.925Z,16.79
2018-07-08T05:55:27.952Z,16.89
2018-07-08T05:57:55.993Z,16.94
2018-07-08T06:00:24.034Z,16.94
2018-07-08T06:02:52.063Z,16.99
2018-07-08T06:05:20.088Z,17.07
2018-07-08T06:07:48.131Z,17.15
2018-07-08T06:10:16.159Z,17.21
2018-07-08T06:12:44.200Z,17.29
2018-07-08T06:15:12.224Z,17.38
2018-07-08T06:17:40.264Z,17.40
2018-07-08T06:20:09.484Z,17.45
2018-07-08T06:22:37.533Z,17.53
2018-07-08T06:25:05.651Z,17.67
2018-07-08T06:27:33.688Z,17.80
2018-07-08T06:30:01.729Z,17.95
2018-07-08T06:32:29.762Z,18.05
2018-07-08T06:34:57.808Z,18.15
2018-07-08T06:37:25.840Z,18.28
2018-07-08T06:39:53.878Z,18.42
2018-07-08T06:42:21.912Z,18.54
2018-07-08T06:44:49.988Z,18.62
2018-07-08T06:47:18.020Z,18.69
2018-07-08T06:49:46.080Z,18.77
2018-07-08T06:52:14.116Z,18.93
2018-07-08T06:54:42.170Z,19.06
2018-07-08T06:57:10.195Z,19.20
2018-07-08T06:59:38.223Z,19.39
2018-07-08T07:02:06.283Z,19.55
2018-07-08T07:04:34.324Z,19.67
2018-07-08T07:07:02.351Z,19.81
2018-07-08T07:09:30.395Z,19.94
2018-07-08T07:11:58.410Z,20.01
2018-07-08T07:14:26.441Z,19.92
2018-07-08T07:16:54.463Z,20.00
2018-07-08T07:19:22.527Z,20.21
2018-07-08T07:21:50.553Z,20.30
2018-07-08T07:24:18.623Z,20.38
2018-07-08T07:26:46.670Z,20.48
2018-07-08T07:29:14.707Z,20.64
2018-07-08T07:31:42.736Z,20.63
2018-07-08T07:34:10.806Z,20.72
2018-07-08T07:36:38.839Z,20.84
2018-07-08T07:39:06.969Z,21.03
2018-07-08T07:41:35.096Z,21.14
2018-07-08T07:44:03.132Z,21.35
2018-07-08T07:46:31.172Z,21.61
2018-07-08T07:48:59.212Z,21.75
2018-07-08T07:51:27.245Z,21.73
2018-07-08T07:53:55.301Z,21.85
2018-07-08T07:56:23.348Z,21.99
2018-07-08T07:58:51.388Z,22.13
2018-07-08T08:01:19.552Z,22.35
2018-07-08T08:03:47.629Z,22.53
2018-07-08T08:06:15.691Z,22.70
2018-07-08T08:08:43.746Z,22.85
2018-07-08T08:11:11.785Z,23.07
2018-07-08T08:13:50.021Z,23.36
2018-07-08T08:16:18.021Z,23.70
2018-07-08T08:18:46.076Z,24.00
2018-07-08T08:21:14.116Z,23.96
2018-07-08T08:23:42.175Z,24.20
2018-07-08T08:26:10.226Z,24.56
2018-07-08T08:28:38.256Z,24.65
2018-07-08T08:31:06.307Z,24.51
2018-07-08T08:33:34.863Z,24.46
2018-07-08T08:36:02.911Z,24.51
2018-07-08T08:38:30.964Z,24.75
2018-07-08T08:40:59.015Z,25.05
2018-07-08T08:43:27.071Z,25.24
2018-07-08T08:45:55.128Z,25.28
2018-07-08T08:48:23.172Z,25.49
2018-07-08T08:50:51.225Z,25.77
2018-07-08T08:53:19.299Z,25.97
2018-07-08T08:55:47.372Z,26.26
2018-07-08T08:58:15.425Z,26.58
2018-07-08T09:00:43.476Z,26.57
2018-07-08T09:03:11.552Z,26.63
2018-07-08T09:05:39.606Z,26.74
2018-07-08T09:08:07.636Z,26.78
2018-07-08T09:10:35.746Z,26.86
2018-07-08T09:13:03.785Z,27.10
2018-07-08T09:15:31.814Z,27.25
2018-07-08T09:17:59.857Z,27.51
2018-07-08T09:20:27.890Z,27.71
2018-07-08T09:22:55.936Z,27.95
2018-07-08T09:25:23.981Z,28.19
2018-07-08T09:27:52.024Z,28.46
2018-07-08T09:30:20.065Z,28.74
2018-07-08T09:32:48.125Z,28.89
2018-07-08T09:35:16.167Z,28.88
2018-07-08T09:37:44.212Z,28.93
2018-07-08T09:40:12.252Z,28.99
2018-07-08T09:42:40.301Z,29.16
2018-07-08T09:45:08.328Z,29.11
2018-07-08T09:47:36.363Z,29.27
2018-07-08T09:50:04.416Z,29.11
2018-07-08T09:52:32.487Z,29.31
2018-07-08T09:55:00.531Z,29.36
2018-07-08T09:57:28.616Z,29.41
2018-07-08T09:59:56.659Z,29.44
2018-07-08T10:02:24.706Z,29.77
2018-07-08T10:04:52.751Z,29.99
2018-07-08T10:07:20.791Z,30.03
2018-07-08T10:09:48.828Z,30.27
2018-07-08T10:12:16.900Z,30.66
2018-07-08T10:14:44.940Z,30.93
2018-07-08T10:17:12.983Z,30.97
2018-07-08T10:19:41.108Z,31.00
2018-07-08T10:22:09.072Z,30.80
2018-07-08T10:24:37.120Z,30.45
2018-07-08T10:27:22.716Z,30.70
2018-07-08T10:29:50.749Z,30.62
2018-07-08T10:32:18.783Z,30.58
2018-07-08T10:34:46.824Z,30.75
2018-07-08T10:37:14.870Z,30.90
2018-07-08T10:39:42.920Z,31.07
2018-07-08T10:42:10.999Z,31.11
2018-07-08T10:44:39.075Z,31.30
2018-07-08T10:47:07.128Z,31.07
2018-07-08T10:49:35.163Z,30.97
2018-07-08T10:52:03.211Z,31.10
2018-07-08T10:54:31.293Z,31.05
2018-07-08T10:56:59.349Z,30.87
2018-07-08T10:59:27.419Z,30.11
2018-07-08T11:01:55.477Z,30.02
2018-07-08T11:04:23.508Z,30.41
2018-07-08T11:06:51.564Z,30.80
2018-07-08T11:09:19.636Z,31.15
2018-07-08T11:11:47.680Z,31.16
2018-07-08T11:14:15.724Z,31.01
2018-07-08T11:16:43.761Z,30.96
2018-07-08T11:19:11.869Z,30.79
2018-07-08T11:21:39.900Z,30.97
2018-07-08T11:24:07.954Z,31.09
2018-07-08T11:26:35.997Z,30.80
2018-07-08T11:29:04.075Z,31.08
2018-07-08T11:31:32.115Z,31.14
2018-07-08T11:34:00.168Z,30.77
2018-07-08T11:36:28.204Z,30.86
2018-07-08T11:38:56.252Z,30.97
2018-07-08T11:41:24.283Z,30.95
2018-07-08T11:43:52.365Z,31.15
2018-07-08T11:46:20.392Z,31.26
2018-07-08T11:48:48.472Z,31.01
2018-07-08T11:51:16.516Z,31.14
2018-07-08T11:53:44.608Z,31.39
2018-07-08T11:56:12.668Z,31.37
2018-07-08T11:58:40.712Z,31.55
2018-07-08T12:01:08.759Z,31.66
2018-07-08T12:03:36.812Z,31.63
2018-07-08T12:06:04.916Z,31.51
2018-07-08T12:08:32.968Z,31.55
2018-07-08T12:11:01.024Z,31.84
2018-07-08T12:13:29.075Z,32.01
2018-07-08T12:15:57.132Z,32.06
2018-07-08T12:18:25.208Z,32.01
2018-07-08T12:20:53.256Z,32.13
2018-07-08T12:23:21.303Z,32.11
2018-07-08T12:25:49.348Z,32.10
2018-07-08T12:28:17.395Z,32.18
2018-07-08T12:30:45.450Z,32.03
2018-07-08T12:33:13.548Z,32.18
2018-07-08T12:35:41.596Z,32.29
2018-07-08T12:38:09.677Z,32.31
2018-07-08T12:40:37.733Z,32.39
2018-07-08T12:43:05.904Z,32.45
2018-07-08T12:45:33.960Z,32.60
2018-07-08T12:48:02.012Z,32.80
2018-07-08T12:50:30.065Z,32.63
2018-07-08T12:52:58.125Z,32.58
2018-07-08T12:55:26.180Z,32.64
2018-07-08T12:57:54.225Z,32.65
2018-07-08T13:00:22.286Z,32.72
2018-07-08T13:02:50.328Z,32.65
2018-07-08T13:05:18.392Z,32.60
2018-07-08T13:07:46.440Z,32.65
2018-07-08T13:10:14.495Z,32.63
2018-07-08T13:12:42.548Z,32.62
2018-07-08T13:15:10.639Z,32.60
2018-07-08T13:17:38.695Z,32.43
2018-07-08T13:20:06.792Z,32.37
2018-07-08T13:22:34.880Z,32.34
2018-07-08T13:25:02.942Z,32.42
2018-07-08T13:27:31.006Z,32.34
2018-07-08T13:29:59.081Z,32.16
2018-07-08T13:32:27.168Z,31.95
2018-07-08T13:34:55.196Z,31.75
2018-07-08T13:37:23.241Z,31.68
2018-07-08T13:39:51.305Z,31.84
2018-07-08T13:42:19.345Z,31.90
2018-07-08T13:44:47.422Z,32.04
2018-07-08T13:47:15.468Z,32.09
2018-07-08T13:49:43.540Z,32.13
2018-07-08T13:52:11.602Z,32.12
2018-07-08T13:54:39.685Z,31.93
2018-07-08T13:57:07.737Z,31.71
2018-07-08T13:59:35.807Z,31.62
2018-07-08T14:02:03.837Z,31.65
2018-07-08T14:04:31.896Z,31.50
2018-07-08T14:06:59.928Z,31.53
2018-07-08T14:09:27.984Z,31.52
2018-07-08T14:11:56.024Z,31.62
2018-07-08T14:14:24.083Z,31.57
2018-07-08T14:16:52.191Z,31.37
2018-07-08T14:19:20.266Z,31.34
2018-07-08T14:21:48.315Z,31.39
2018-07-08T14:24:16.379Z,31.44
2018-07-08T14:26:44.423Z,31.53
2018-07-08T14:29:12.498Z,31.55
2018-07-08T14:31:40.527Z,31.45
2018-07-08T14:34:08.889Z,31.25
2018-07-08T14:36:36.920Z,31.12
2018-07-08T14:39:06.254Z,31.02
2018-07-08T14:41:34.625Z,30.82
2018-07-08T14:44:02.660Z,30.87
2018-07-08T14:46:30.756Z,30.92
2018-07-08T14:48:58.800Z,30.98
2018-07-08T14:51:26.844Z,30.94
2018-07-08T14:53:54.891Z,30.63
2018-07-08T14:56:23.561Z,30.68
2018-07-08T14:58:51.928Z,30.73
2018-07-08T15:01:20.076Z,30.48
2018-07-08T15:03:48.112Z,30.29
2018-07-08T15:06:16.187Z,30.28
2018-07-08T15:08:44.196Z,30.29
2018-07-08T15:11:12.268Z,30.34
2018-07-08T15:13:40.303Z,30.42
2018-07-08T15:16:08.392Z,30.39
2018-07-08T15:18:36.390Z,30.35
2018-07-08T15:21:04.469Z,30.23
2018-07-08T15:23:32.504Z,30.08
2018-07-08T15:26:00.548Z,30.06
2018-07-08T15:28:28.860Z,30.02
2018-07-08T15:30:56.905Z,29.96
2018-07-08T15:33:24.936Z,29.95
2018-07-08T15:35:52.981Z,29.98
2018-07-08T15:38:21.021Z,30.00
2018-07-08T15:40:49.064Z,30.02
2018-07-08T15:43:17.108Z,29.93
2018-07-08T15:45:45.145Z,29.93
2018-07-08T15:48:20.045Z,29.84
2018-07-08T15:50:48.092Z,29.52
2018-07-08T15:53:16.124Z,29.19
2018-07-08T15:55:44.180Z,28.99
2018-07-08T15:58:12.220Z,28.91
2018-07-08T16:00:40.262Z,28.87
2018-07-08T16:03:08.291Z,28.75
2018-07-08T16:05:36.344Z,28.54
2018-07-08T16:08:04.394Z,28.25
2018-07-08T16:10:32.432Z,28.16
2018-07-08T16:13:00.464Z,27.95
2018-07-08T16:15:28.508Z,27.90
2018-07-08T16:17:56.536Z,27.76
2018-07-08T16:20:24.572Z,27.64
2018-07-08T16:22:53.031Z,27.61
2018-07-08T16:25:21.112Z,27.57
2018-07-08T16:27:49.140Z,27.47
2018-07-08T16:30:17.231Z,27.35
2018-07-08T16:32:45.249Z,27.20
2018-07-08T16:35:13.292Z,27.06
2018-07-08T16:37:41.336Z,27.01
2018-07-08T16:40:12.611Z,26.91
2018-07-08T16:42:40.896Z,26.84
2018-07-08T16:45:08.936Z,26.77
2018-07-08T16:47:36.979Z,26.63
2018-07-08T16:50:05.040Z,26.48
2018-07-08T16:52:33.113Z,26.36
2018-07-08T16:55:01.153Z,26.19
2018-07-08T16:57:29.200Z,26.15
2018-07-08T16:59:57.235Z,26.11
2018-07-08T17:02:25.305Z,25.93
2018-07-08T17:04:53.312Z,25.82
2018-07-08T17:07:21.389Z,25.82
2018-07-08T17:09:49.448Z,25.83
2018-07-08T17:12:17.484Z,25.73
2018-07-08T17:14:45.530Z,25.69
2018-07-08T17:17:13.568Z,25.69
2018-07-08T17:19:42.252Z,25.66
2018-07-08T17:22:10.279Z,25.60
2018-07-08T17:24:38.393Z,25.56
2018-07-08T17:27:06.454Z,25.55
2018-07-08T17:29:34.489Z,25.51
2018-07-08T17:32:02.528Z,25.57
2018-07-08T17:34:30.551Z,25.59
2018-07-08T17:36:58.592Z,25.55
2018-07-08T17:39:26.661Z,25.40
2018-07-08T17:41:54.704Z,25.23
2018-07-08T17:44:22.739Z,24.98
2018-07-08T17:46:50.795Z,24.86
2018-07-08T17:49:18.845Z,24.85
2018-07-08T17:51:46.896Z,24.77
2018-07-08T17:54:15.036Z,24.60
2018-07-08T17:56:43.096Z,24.57
2018-07-08T17:59:11.144Z,24.55
2018-07-08T18:01:39.187Z,24.51
2018-07-08T18:04:07.264Z,24.40
2018-07-08T18:06:35.320Z,24.32
2018-07-08T18:09:03.611Z,24.13
2018-07-08T18:11:31.552Z,23.97
2018-07-08T18:13:59.611Z,23.85
2018-07-08T18:16:27.651Z,23.75
2018-07-08T18:18:55.708Z,23.72
2018-07-08T18:21:23.796Z,23.77
2018-07-08T18:23:51.819Z,23.79
2018-07-08T18:26:19.856Z,23.70
2018-07-08T18:28:47.895Z,23.52
2018-07-08T18:31:15.944Z,23.40
2018-07-08T18:33:43.996Z,23.35
2018-07-08T18:36:12.041Z,23.30
2018-07-08T18:38:40.487Z,23.28
2018-07-08T18:41:08.539Z,23.16
2018-07-08T18:43:36.603Z,23.01
2018-07-08T18:46:04.914Z,22.88
2018-07-08T18:48:32.952Z,22.74
2018-07-08T18:51:01.153Z,22.66
2018-07-08T18:53:29.236Z,22.65
2018-07-08T18:55:57.305Z,22.52
2018-07-08T18:58:25.365Z,22.49
2018-07-08T19:00:53.636Z,22.49
2018-07-08T19:03:21.697Z,22.50
2018-07-08T19:05:49.756Z,22.45
2018-07-08T19:08:17.840Z,22.35
2018-07-08T19:10:46.180Z,22.33
2018-07-08T19:13:14.296Z,22.31
2018-07-08T19:15:42.371Z,22.10
2018-07-08T19:18:10.420Z,22.05
2018-07-08T19:20:38.463Z,22.06
2018-07-08T19:23:06.571Z,22.00
2018-07-08T19:25:34.671Z,21.95
2018-07-08T19:28:02.692Z,21.92
2018-07-08T19:30:30.793Z,21.93
2018-07-08T19:32:58.792Z,21.87
2018-07-08T19:35:26.837Z,21.71
2018-07-08T19:37:54.876Z,21.54
2018-07-08T19:40:22.938Z,21.43
2018-07-08T19:42:51.012Z,21.39
2018-07-08T19:45:19.092Z,21.36
2018-07-08T19:47:47.157Z,21.31
2018-07-08T19:50:15.232Z,21.26
2018-07-08T19:52:43.269Z,21.18
2018-07-08T19:55:11.306Z,21.10
2018-07-08T19:57:39.361Z,21.08
2018-07-08T20:00:07.728Z,21.07
2018-07-08T20:02:35.812Z,21.03
2018-07-08T20:05:03.840Z,20.96
2018-07-08T20:07:31.919Z,20.89
2018-07-08T20:09:59.923Z,20.78
2018-07-08T20:12:27.962Z,20.73
2018-07-08T20:14:56.031Z,20.72
2018-07-08T20:17:24.424Z,20.65
2018-07-08T20:19:52.463Z,20.59
2018-07-08T20:22:20.490Z,20.54
2018-07-08T20:24:48.532Z,20.52
2018-07-08T20:27:16.555Z,20.42
2018-07-08T20:29:44.964Z,20.40
2018-07-08T20:32:13.030Z,20.35
2018-07-08T20:34:41.040Z,20.35
2018-07-08T20:37:09.084Z,20.35
2018-07-08T20:39:37.129Z,20.27
2018-07-08T20:42:05.161Z,20.25
2018-07-08T20:44:33.217Z,20.21
2018-07-08T20:47:01.528Z,20.15
2018-07-08T20:49:29.567Z,20.12
2018-07-08T20:51:58.437Z,20.06
2018-07-08T20:54:27.264Z,20.02
2018-07-08T20:56:55.307Z,19.96
2018-07-08T20:59:23.340Z,19.89
2018-07-08T21:01:51.379Z,19.85
2018-07-08T21:04:19.415Z,19.78
2018-07-08T21:06:47.440Z,19.75
2018-07-08T21:09:15.490Z,19.69
2018-07-08T21:11:43.519Z,19.67
2018-07-08T21:14:11.555Z,19.63
2018-07-08T21:16:39.584Z,19.61
2018-07-08T21:19:07.645Z,19.57
2018-07-08T21:21:35.775Z,19.57
2018-07-08T21:24:04.051Z,19.49
2018-07-08T21:26:32.084Z,19.41
2018-07-08T21:29:00.175Z,19.34
2018-07-08T21:31:28.192Z,19.27
2018-07-08T21:33:56.245Z,19.23
2018-07-08T21:36:24.272Z,19.17
2018-07-08T21:38:52.304Z,19.15
2018-07-08T21:41:20.337Z,19.11
2018-07-08T21:43:48.372Z,19.09
2018-07-08T21:46:16.437Z,19.03
2018-07-08T21:48:44.529Z,18.99
2018-07-08T21:51:13.256Z,18.97
2018-07-08T21:53:41.376Z,18.92
2018-07-08T21:56:09.417Z,18.88
2018-07-08T21:58:37.440Z,18.85
2018-07-08T22:01:13.912Z,18.85
2018-07-08T22:03:42.489Z,18.82
2018-07-08T22:06:10.533Z,18.80
2018-07-08T22:08:38.553Z,18.78
2018-07-08T22:11:08.035Z,18.76
2018-07-08T22:13:36.519Z,18.74
2018-07-08T22:16:04.895Z,18.72
2018-07-08T22:18:33.364Z,18.69
2018-07-08T22:21:01.848Z,18.68
2018-07-08T22:23:29.984Z,18.66
2018-07-08T22:25:58.395Z,18.66
2018-07-08T22:28:26.447Z,18.63
2018-07-08T22:30:54.496Z,18.59
2018-07-08T22:33:22.527Z,18.57
2018-07-08T22:35:50.556Z,18.50
2018-07-08T22:38:18.576Z,18.43
2018-07-08T22:40:46.613Z,18.38
2018-07-08T22:43:14.677Z,18.30
2018-07-08T22:45:42.715Z,18.24
2018-07-08T22:48:10.735Z,18.23
2018-07-08T22:50:38.768Z,18.20
2018-07-08T22:53:06.823Z,18.17
2018-07-08T22:55:34.856Z,18.15
2018-07-08T22:58:03.145Z,18.10
2018-07-08T23:00:42.561Z,18.08
2018-07-08T23:03:49.830Z,18.05
2018-07-08T23:06:19.123Z,17.97
2018-07-08T23:08:47.602Z,17.92
2018-07-08T23:11:15.640Z,17.84
2018-07-08T23:13:43.804Z,17.81
2018-07-08T23:16:11.823Z,17.77
2018-07-08T23:18:39.848Z,17.76
2018-07-08T23:21:07.996Z,17.76
2018-07-08T23:23:36.019Z,17.76
2018-07-08T23:26:04.150Z,17.78
2018-07-08T23:28:32.570Z,17.79
2018-07-08T23:31:00.624Z,17.77
2018-07-08T23:33:29.222Z,17.76
2018-07-08T23:35:57.247Z,17.75
2018-07-08T23:38:25.284Z,17.73
2018-07-08T23:40:53.319Z,17.71
2018-07-08T23:43:21.343Z,17.68
2018-07-08T23:45:49.381Z,17.66
2018-07-08T23:48:17.408Z,17.61
2018-07-08T23:50:45.445Z,17.59
2018-07-08T23:53:13.480Z,17.55
2018-07-08T23:55:41.534Z,17.52
2018-07-08T23:58:09.547Z,17.51
